Terminal Aerodrome Forecast
Issued by NWS Missoula, MT

Home | Current Version | Previous Version | Text Only | Print | Product List | Glossary On
Versions: 1 2 3 4 5 6 7 8 9 10 11 12 13 14 15 16 17 18 19 20 21 22 23 24 25 26 27 28 29 30 31 32 33 34 35 36 37 38 39
000
FTUS45 KMSO 191720
TAFBTM
TAF
KBTM 191720Z 1918/2018 29018G25KT P6SM SCT060
     FM192100 31020G35KT P6SM SCT100
     FM200400 32012G22KT P6SM SCT250
     FM200600 30010KT P6SM BKN080=

USA.gov is the U.S. government's official web portal to all federal, state and local government web resources and services.